Last 6 Hours

Alpine-Roundhouse Top 7880'

15 Minute Data | America/Los_Angeles
as of 10/27/20 7:09 PM PDT
Date & Time Temp (°F) RH (%) Dew Pt (°F) Wet Bulb (°F) Wind Dir (°) Wind Spd (mph) Wind Gust (mph) WindChill (°F)
10/27/20 - 1900 45.1 33 17.6 33.8 NE | 47 3.8 13.9 44.0
10/27/20 - 1845 45.7 29 15.2 33.6 NE | 45 3.2 7.5 44.7
10/27/20 - 1830 45.6 30 15.7 33.6 NE | 52 5.1 15.6 43.7
10/27/20 - 1815 46.0 30 16.3 34.0 NE | 52 4.4 16.3 44.2
10/27/20 - 1800 45.9 32 17.8 34.3 NE | 51 3.6 8.7 44.7
10/27/20 - 1745 45.7 36 20.6 35.0 ENE | 77 4.3 14.8 44.5
10/27/20 - 1730 46.4 34 19.5 35.1 ENE | 73 5.0 14.2 44.5
10/27/20 - 1715 46.7 32 18.3 34.9 ENE | 68 5.5 17.6 45.0
10/27/20 - 1700 47.3 28 16.2 34.6 NE | 53 5.6 17.1 45.4
10/27/20 - 1645 47.5 28 16.2 34.8 NNE | 30 3.9 12.1 46.5
10/27/20 - 1630 48.1 28 16.9 35.2 NE | 37 6.3 22.6 45.5
10/27/20 - 1615 47.8 28 16.6 35.0 NE | 50 6.7 19.8 45.2
10/27/20 - 1600 48.1 32 19.5 35.9 ENE | 62 9.5 24.5 44.0
10/27/20 - 1545 47.5 32 19.3 35.6 ENE | 64 9.6 21.6 43.3
10/27/20 - 1530 47.4 38 22.9 36.5 ENE | 71 8.4 18.5 43.4
10/27/20 - 1515 46.8 41 24.3 36.7 ENE | 68 6.7 17.5 44.1
10/27/20 - 1500 46.7 43 25.5 37.0 ENE | 68 10.9 20.5 42.3
10/27/20 - 1445 47.8 42 26.1 37.8 NE | 48 5.5 22.7 45.7
10/27/20 - 1430 47.4 42 25.6 37.4 NE | 56 9.9 20.7 43.3
10/27/20 - 1415 47.0 44 26.1 37.4 ENE | 59 10.9 22.8 43.0
10/27/20 - 1400 47.6 44 27.0 38.0 NE | 38 7.0 18.9 44.3
10/27/20 - 1345 47.0 45 26.9 37.7 ENE | 70 9.6 26.4 42.3
10/27/20 - 1330 46.0 46 26.5 37.0 ENE | 70 8.1 20.3 41.4
10/27/20 - 1315 44.5 46 25.2 35.9 ENE | 67 8.6 19.4 40.2
Max 48.1 46 27.0 38.0 - 10.9 26.4 46.5
Avg 46.7 36 20.9 35.7 - 6.8 18.1 44.0
Min 44.5 28 15.2 33.6 - 3.2 7.5 40.2